Praia De Monte Gordo — CURJ4 — position and weather

sailwx.info

Track history (hours):
 
Tides and Currents Weather Stations Pressure Air Temp Water Temp Dewpoint Dewpoint Depression Visibility Wind Speed Wind Dir Waves Ship Positions

Praia De Monte Gordo

Last reported at 2018-Apr-25 04:24 UTC. Time now 2018-Apr-25 06:53 UTC.
Position N 36°58' W 008°10'.

Length 13 m.

Type: Fishing. MMSI: 263433000.

Date/timePositionNaut miles runAvg speedWind from/ knotsBaromVisibWave heightAir tempDewpointWater temp
2018-Apr-25 04:24N 36°58' W 008°10'1 2.5
2018-Apr-25 03:56N 36°59' W 008°11'1 2.5
2018-Apr-25 03:22N 36°59' W 008°13'1 2.5
2018-Apr-25 03:00N 36°59' W 008°14'2 4.5
2018-Apr-25 02:30N 36°58' W 008°17'4 8.4
2018-Apr-25 02:00N 36°59' W 008°22'4 8.5
2018-Apr-25 01:30N 36°59' W 008°28'4 8.5
2018-Apr-25 01:00N 36°59' W 008°33'4 8.3
2018-Apr-25 00:30N 36°59' W 008°38'4 8.1
2018-Apr-25 00:00N 36°58' W 008°43'6 2.2
2018-Apr-24 21:28N 36°56' W 008°50'5 2.2
2018-Apr-24 19:19N 36°58' W 008°44'0 0.0
2018-Apr-24 14:28N 36°58' W 008°44'1 1.2
2018-Apr-24 13:59N 36°58' W 008°45'0 0.0
2018-Apr-24 06:52N 36°58' W 008°45'1 0.1
2018-Apr-24 02:13N 36°58' W 008°44'0 0.4
2018-Apr-24 02:00N 36°58' W 008°44'0 0.0
2018-Apr-23 21:35N 36°58' W 008°44'0 1.2
2018-Apr-23 21:24N 36°58' W 008°44'0 0.0
2018-Apr-23 16:17N 36°58' W 008°44'0 0.0
2018-Apr-23 11:39N 36°58' W 008°44'2 0.5
2018-Apr-23 07:49N 36°57' W 008°47'1 2.6
2018-Apr-23 07:29N 36°57' W 008°45'0 0.7
2018-Apr-23 07:00N 36°58' W 008°46'1 1.4
2018-Apr-23 06:29N 36°58' W 008°45'2 5.0
2018-Apr-23 06:00N 36°59' W 008°42'4 8.7
2018-Apr-23 05:31N 36°59' W 008°37'4 8.9
2018-Apr-23 05:01N 36°59' W 008°31'6 8.8
2018-Apr-23 04:21N 36°58' W 008°24'4 8.8
2018-Apr-23 03:57N 36°58' W 008°20'4 8.8
2018-Apr-23 03:30N 36°57' W 008°15'4 9.1
2018-Apr-23 03:01N 36°57' W 008°09'5 8.8
2018-Apr-23 02:30N 36°56' W 008°03'  
2018-Apr-16 17:31N 36°59' W 008°14'0 2.5
2018-Apr-16 17:30N 36°59' W 008°14'1 2.4
2018-Apr-16 17:00N 36°59' W 008°13'1 2.3
2018-Apr-16 16:26N 36°59' W 008°11'1 0.2
2018-Apr-16 09:38N 36°59' W 008°13'0 2.6
2018-Apr-16 09:29N 36°59' W 008°13'1 2.6
2018-Apr-16 08:57N 36°59' W 008°15'18 8.3
2018-Apr-16 06:45N 36°59' W 008°38'  
Track history (hours):
 
Tides and Currents Weather Stations Pressure Air Temp Water Temp Dewpoint Dewpoint Depression Visibility Wind Speed Wind Dir Waves Ship Positions

Praia De Monte Gordo

Last reported at 2018-Apr-25 04:24 UTC. Time now 2018-Apr-25 06:53 UTC.
Position N 36°58' W 008°10'.

Length 13 m.

Type: Fishing. MMSI: 263433000.

Date/timePositionNaut miles runAvg speedWind from/ knotsBaromVisibWave heightAir tempDewpointWater temp
2018-Apr-25 04:24N 36°58' W 008°10'1 2.5
2018-Apr-25 03:56N 36°59' W 008°11'1 2.5
2018-Apr-25 03:22N 36°59' W 008°13'1 2.5
2018-Apr-25 03:00N 36°59' W 008°14'2 4.5
2018-Apr-25 02:30N 36°58' W 008°17'4 8.4
2018-Apr-25 02:00N 36°59' W 008°22'4 8.5
2018-Apr-25 01:30N 36°59' W 008°28'4 8.5
2018-Apr-25 01:00N 36°59' W 008°33'4 8.3
2018-Apr-25 00:30N 36°59' W 008°38'4 8.1
2018-Apr-25 00:00N 36°58' W 008°43'6 2.2
2018-Apr-24 21:28N 36°56' W 008°50'5 2.2
2018-Apr-24 19:19N 36°58' W 008°44'0 0.0
2018-Apr-24 14:28N 36°58' W 008°44'1 1.2
2018-Apr-24 13:59N 36°58' W 008°45'0 0.0
2018-Apr-24 06:52N 36°58' W 008°45'1 0.1
2018-Apr-24 02:13N 36°58' W 008°44'0 0.4
2018-Apr-24 02:00N 36°58' W 008°44'0 0.0
2018-Apr-23 21:35N 36°58' W 008°44'0 1.2
2018-Apr-23 21:24N 36°58' W 008°44'0 0.0
2018-Apr-23 16:17N 36°58' W 008°44'0 0.0
2018-Apr-23 11:39N 36°58' W 008°44'2 0.5
2018-Apr-23 07:49N 36°57' W 008°47'1 2.6
2018-Apr-23 07:29N 36°57' W 008°45'0 0.7
2018-Apr-23 07:00N 36°58' W 008°46'1 1.4
2018-Apr-23 06:29N 36°58' W 008°45'2 5.0
2018-Apr-23 06:00N 36°59' W 008°42'4 8.7
2018-Apr-23 05:31N 36°59' W 008°37'4 8.9
2018-Apr-23 05:01N 36°59' W 008°31'6 8.8
2018-Apr-23 04:21N 36°58' W 008°24'4 8.8
2018-Apr-23 03:57N 36°58' W 008°20'4 8.8
2018-Apr-23 03:30N 36°57' W 008°15'4 9.1
2018-Apr-23 03:01N 36°57' W 008°09'5 8.8
2018-Apr-23 02:30N 36°56' W 008°03'  
2018-Apr-16 17:31N 36°59' W 008°14'0 2.5
2018-Apr-16 17:30N 36°59' W 008°14'1 2.4
2018-Apr-16 17:00N 36°59' W 008°13'1 2.3
2018-Apr-16 16:26N 36°59' W 008°11'1 0.2
2018-Apr-16 09:38N 36°59' W 008°13'0 2.6
2018-Apr-16 09:29N 36°59' W 008°13'1 2.6
2018-Apr-16 08:57N 36°59' W 008°15'18 8.3
2018-Apr-16 06:45N 36°59' W 008°38'  

Dump ship's entire track history